Time;durP1;ratioP1;P1;durP2;ratioP2;P2;SDS_P1;SDS_P2;PMS_P1;PMS_P2;Temp;Humidity;BMP_temperature;BMP_pressure;BME280_temperature;BME280_humidity;BME280_pressure;Samples;Min_cycle;Max_cycle;Signal;HPM_P1;HPM_P2
2022/06/20 00:01:57;;;;;;;4.97;2.30;;;;;;;20.24;58.79;99506.47;4356963;32;35586;-80
2022/06/20 00:04:43;;;;;;;5.15;2.10;;;;;;;20.23;59.24;99500.06;4356483;32;35901;-80
2022/06/20 00:07:30;;;;;;;7.87;2.25;;;;;;;19.81;60.59;99511.44;4356495;32;35548;-80
2022/06/20 00:10:18;;;;;;;4.78;2.45;;;;;;;19.83;61.08;99504.34;4357957;32;33748;-80
2022/06/20 00:13:05;;;;;;;3.78;2.30;;;;;;;19.51;62.89;99503.88;4357595;32;35495;-80
2022/06/20 00:15:52;;;;;;;8.15;2.45;;;;;;;19.66;63.21;99499.34;4357790;32;35043;-80
2022/06/20 00:18:39;;;;;;;4.30;2.47;;;;;;;19.92;62.26;99495.72;4357806;32;34267;-80
2022/06/20 00:21:26;;;;;;;6.00;2.55;;;;;;;19.33;65.07;99482.16;4357809;32;34886;-80
2022/06/20 00:24:12;;;;;;;4.10;2.10;;;;;;;19.16;65.75;99482.69;4357554;32;36369;-80
2022/06/20 00:26:58;;;;;;;3.28;2.28;;;;;;;18.31;69.45;99491.09;4356848;32;36002;-81
2022/06/20 00:29:46;;;;;;;4.20;2.15;;;;;;;18.84;67.65;99488.53;4356744;32;34721;-80
2022/06/20 00:32:32;;;;;;;5.25;2.40;;;;;;;18.86;68.05;99490.91;4356503;32;34141;-80
2022/06/20 00:35:19;;;;;;;3.92;2.15;;;;;;;19.58;63.96;99487.31;4357291;32;34275;-80
2022/06/20 00:38:06;;;;;;;5.57;2.20;;;;;;;19.60;62.63;99478.56;4357580;32;35484;-80
2022/06/20 00:41:09;;;;;;;4.00;2.10;;;;;;;19.47;62.66;99483.56;4357446;32;34543;-80
2022/06/20 00:43:56;;;;;;;3.58;2.17;;;;;;;19.67;61.17;99481.50;4356416;32;35050;-80
2022/06/20 00:47:05;;;;;;;4.20;2.50;;;;;;;19.50;62.14;99480.03;4356894;32;34666;-80
2022/06/20 00:50:19;;;;;;;4.20;2.28;;;;;;;19.57;62.61;99482.91;4356147;32;36067;-80
2022/06/20 00:53:56;;;;;;;5.43;2.47;;;;;;;19.49;61.82;99476.44;4357431;32;34583;-80
2022/06/20 00:57:27;;;;;;;4.22;2.50;;;;;;;19.12;63.15;99469.91;4356006;32;34102;-80
2022/06/20 01:00:36;;;;;;;4.55;2.25;;;;;;;19.22;64.00;99464.53;4357417;32;34714;-80
2022/06/20 01:03:46;;;;;;;5.10;2.62;;;;;;;19.29;63.58;99453.53;4356487;32;35784;-80
2022/06/20 01:06:56;;;;;;;3.83;2.40;;;;;;;19.01;64.72;99453.91;4357328;32;34287;-80
2022/06/20 01:10:03;;;;;;;3.22;2.30;;;;;;;18.90;65.67;99452.94;4356495;32;32293;-80
2022/06/20 01:13:17;;;;;;;3.67;2.60;;;;;;;19.14;64.60;99454.50;4355666;32;34554;-80
2022/06/20 01:16:24;;;;;;;4.55;2.45;;;;;;;19.30;64.11;99454.34;4357638;32;34966;-80
2022/06/20 01:19:53;;;;;;;5.85;2.53;;;;;;;19.12;64.71;99448.50;4357322;32;37169;-80
2022/06/20 01:23:30;;;;;;;10.27;3.53;;;;;;;19.22;64.90;99438.75;4356660;32;35139;-80
2022/06/20 01:26:44;;;;;;;5.50;2.70;;;;;;;18.91;66.34;99432.31;4357235;32;35504;-80
2022/06/20 01:29:49;;;;;;;6.75;2.62;;;;;;;18.76;65.86;99422.97;4356339;32;35992;-79
2022/06/20 01:32:55;;;;;;;4.25;2.72;;;;;;;19.02;64.55;99415.84;4357282;32;35458;-80
2022/06/20 01:39:25;;;;;;;4.57;2.87;;;;;;;18.90;64.77;99413.25;4356334;32;34577;-80
2022/06/20 01:42:31;;;;;;;5.85;2.58;;;;;;;18.79;65.40;99427.78;4357050;32;35581;-80
2022/06/20 01:49:07;;;;;;;5.47;2.70;;;;;;;18.69;66.85;99422.78;4354930;32;34946;-79
2022/06/20 01:52:31;;;;;;;5.72;3.00;;;;;;;18.59;67.04;99415.09;4356655;32;35631;-79
2022/06/20 01:55:36;;;;;;;5.68;3.03;;;;;;;18.31;68.23;99427.28;4355907;32;34927;-79
2022/06/20 01:58:49;;;;;;;7.90;2.90;;;;;;;18.39;67.88;99425.47;4356479;32;34746;-79
2022/06/20 02:01:54;;;;;;;5.60;2.80;;;;;;;18.42;68.08;99417.19;4355900;32;34066;-80
2022/06/20 02:05:03;;;;;;;4.53;2.78;;;;;;;18.74;66.57;99405.06;4356051;32;34393;-79
2022/06/20 02:08:09;;;;;;;6.00;3.00;;;;;;;18.77;65.98;99398.78;4355818;32;35004;-79
2022/06/20 02:11:20;;;;;;;5.75;2.90;;;;;;;18.65;66.72;99402.53;4356101;32;34263;-79
2022/06/20 02:14:36;;;;;;;5.43;3.00;;;;;;;18.26;68.17;99388.75;4356396;32;34001;-79
2022/06/20 02:17:43;;;;;;;5.87;3.08;;;;;;;18.30;68.93;99392.41;4356319;32;35635;-79
2022/06/20 02:20:50;;;;;;;6.93;3.40;;;;;;;18.24;69.35;99384.75;4355458;32;34645;-79
2022/06/20 02:24:00;;;;;;;5.78;3.20;;;;;;;18.34;68.35;99387.72;4355672;32;34678;-79
2022/06/20 02:27:10;;;;;;;4.80;3.10;;;;;;;18.17;69.32;99377.13;4355191;32;34974;-79
2022/06/20 02:30:15;;;;;;;5.50;3.00;;;;;;;18.38;68.60;99388.56;4355694;32;34690;-79
2022/06/20 02:33:25;;;;;;;7.55;3.03;;;;;;;18.06;69.68;99385.22;4356334;32;35607;-79
2022/06/20 02:36:31;;;;;;;5.05;3.10;;;;;;;18.22;69.58;99368.50;4355589;32;33307;-78
2022/06/20 02:39:41;;;;;;;8.63;3.28;;;;;;;18.31;68.17;99374.59;4356034;32;33975;-79
2022/06/20 02:43:26;;;;;;;8.00;3.30;;;;;;;18.05;70.17;99372.53;4354677;32;34191;-79
2022/06/20 02:46:32;;;;;;;6.15;3.10;;;;;;;17.85;70.38;99366.22;4309659;32;35015;-79
2022/06/20 02:49:37;;;;;;;5.60;2.78;;;;;;;18.00;70.11;99372.84;4352989;32;34808;-79
2022/06/20 02:52:50;;;;;;;7.78;3.92;;;;;;;18.23;68.59;99374.84;4355608;32;34177;-79
2022/06/20 02:55:56;;;;;;;4.87;2.75;;;;;;;18.40;68.02;99372.38;4355348;32;35086;-79
2022/06/20 02:59:05;;;;;;;3.85;2.53;;;;;;;18.28;68.65;99377.31;4355520;32;34971;-79
2022/06/20 03:02:12;;;;;;;4.75;2.72;;;;;;;18.24;67.86;99380.00;4358247;32;34287;-80
2022/06/20 03:05:18;;;;;;;5.80;2.75;;;;;;;18.03;69.13;99382.41;4357454;32;33923;-79
2022/06/20 03:08:24;;;;;;;5.37;3.25;;;;;;;17.78;69.89;99371.62;4358344;32;34326;-79
2022/06/20 03:11:31;;;;;;;5.85;3.30;;;;;;;17.39;72.31;99366.06;4358246;32;34631;-79
2022/06/20 03:14:50;;;;;;;6.78;3.28;;;;;;;17.41;72.57;99363.72;4357269;32;34632;-79
2022/06/20 03:17:57;;;;;;;5.45;3.47;;;;;;;17.33;74.03;99361.94;4357305;32;33743;-79
2022/06/20 03:21:03;;;;;;;6.28;3.25;;;;;;;17.72;72.27;99361.97;4357751;32;34400;-79
2022/06/20 03:24:10;;;;;;;4.90;3.37;;;;;;;17.57;73.05;99365.62;4357951;32;35702;-79
2022/06/20 03:27:25;;;;;;;8.88;3.45;;;;;;;17.22;75.55;99361.75;4356928;32;35537;-79
2022/06/20 03:30:35;;;;;;;6.62;3.03;;;;;;;17.73;73.25;99366.34;4358027;32;35179;-80
2022/06/20 03:33:41;;;;;;;4.43;3.10;;;;;;;17.63;74.04;99366.94;4358002;32;34265;-80
2022/06/20 03:36:47;;;;;;;4.68;3.42;;;;;;;18.21;70.83;99361.34;4358310;32;34751;-80
2022/06/20 03:39:52;;;;;;;5.40;3.28;;;;;;;17.80;71.56;99355.44;4357715;32;34358;-80
2022/06/20 03:42:58;;;;;;;10.05;4.00;;;;;;;17.90;71.33;99363.16;4356876;32;34215;-80
2022/06/20 03:46:08;;;;;;;8.02;3.45;;;;;;;16.92;76.71;99364.22;4357613;32;35327;-79
2022/06/20 03:49:21;;;;;;;5.78;3.30;;;;;;;17.52;74.30;99363.94;4357112;32;34653;-79
2022/06/20 03:52:34;;;;;;;6.93;3.70;;;;;;;17.80;72.16;99357.41;4356769;32;35701;-80
2022/06/20 03:56:15;;;;;;;7.20;3.25;;;;;;;18.20;70.69;99359.75;4356897;32;33957;-80
2022/06/20 03:59:45;;;;;;;6.93;3.40;;;;;;;17.19;73.19;99362.47;4356946;32;34693;-79
2022/06/20 04:03:06;;;;;;;5.12;2.95;;;;;;;17.15;74.27;99366.31;4357860;32;34581;-79
2022/06/20 04:06:32;;;;;;;8.90;3.72;;;;;;;17.79;72.05;99361.34;4357029;32;34857;-79
2022/06/20 04:13:19;;;;;;;5.65;3.33;;;;;;;17.91;71.64;99364.75;4357534;32;35570;-79
2022/06/20 04:16:34;;;;;;;6.05;3.87;;;;;;;18.02;71.50;99369.72;4357608;32;33902;-79
2022/06/20 04:19:39;;;;;;;7.75;4.37;;;;;;;18.51;69.32;99364.25;4357718;32;34610;-80
2022/06/20 04:22:44;;;;;;;5.22;3.50;;;;;;;17.82;72.01;99366.16;4357451;32;35040;-79
2022/06/20 04:26:03;;;;;;;11.95;4.95;;;;;;;16.90;76.55;99366.53;4356721;32;35314;-79
2022/06/20 04:29:20;;;;;;;8.02;3.72;;;;;;;17.06;76.03;99364.53;4357748;32;35891;-79
2022/06/20 04:32:38;;;;;;;8.70;4.05;;;;;;;17.59;74.24;99363.28;4357447;32;34388;-79
2022/06/20 04:35:52;;;;;;;7.90;3.65;;;;;;;17.84;72.94;99364.59;4357737;32;33845;-80
2022/06/20 04:39:03;;;;;;;9.57;3.60;;;;;;;18.65;71.17;99366.44;4357702;32;34724;-80
2022/06/20 04:42:23;;;;;;;9.77;3.50;;;;;;;18.48;71.07;99361.41;4361973;32;34992;-79
2022/06/20 04:45:40;;;;;;;5.50;3.90;;;;;;;18.69;68.87;99353.41;4356910;32;34649;-80
2022/06/20 04:48:46;;;;;;;8.27;4.30;;;;;;;17.84;74.68;99359.06;4361847;32;33684;-80
2022/06/20 04:51:52;;;;;;;9.27;3.75;;;;;;;18.31;72.10;99357.16;4372192;32;34685;-79
2022/06/20 04:54:58;;;;;;;8.40;4.35;;;;;;;19.23;69.54;99354.25;4372139;32;35068;-80
2022/06/20 04:58:07;;;;;;;10.48;4.35;;;;;;;19.49;68.64;99351.41;4369246;32;34539;-80
2022/06/20 05:01:13;;;;;;;9.07;4.25;;;;;;;19.66;66.93;99354.81;4361116;32;34655;-79
2022/06/20 05:04:37;;;;;;;8.38;4.75;;;;;;;19.18;69.51;99352.59;4372167;32;35599;-79
2022/06/20 05:07:42;;;;;;;7.12;3.65;;;;;;;19.54;67.98;99341.94;4362554;32;34580;-79
2022/06/20 05:10:55;;;;;;;7.22;4.47;;;;;;;19.49;69.67;99359.72;4360826;32;34732;-80
2022/06/20 05:14:07;;;;;;;7.45;3.83;;;;;;;18.50;74.09;99361.81;4356637;32;34764;-80
2022/06/20 05:17:18;;;;;;;6.43;4.12;;;;;;;19.69;70.93;99357.62;4361709;32;35489;-79
2022/06/20 05:20:29;;;;;;;6.90;3.90;;;;;;;20.28;68.33;99359.84;4361078;32;34645;-80
2022/06/20 05:23:40;;;;;;;8.57;4.65;;;;;;;20.69;67.44;99362.59;4360106;32;34408;-79
2022/06/20 05:26:47;;;;;;;9.77;4.57;;;;;;;20.86;67.64;99370.28;4362150;32;33730;-80
2022/06/20 05:29:54;;;;;;;8.15;3.62;;;;;;;21.17;66.13;99370.88;4371328;32;35647;-79
2022/06/20 05:33:37;;;;;;;9.43;4.50;;;;;;;21.39;65.82;99358.72;4367942;32;35585;-79
2022/06/20 05:36:28;;;;;;;9.35;4.20;;;;;;;21.23;65.47;99366.53;4345687;32;34621;-79
2022/06/20 05:39:24;;;;;;;;;;;;;;;21.50;64.95;99367.91;4360640;32;33063;-79
2022/06/20 05:42:13;;;;;;;8.30;4.28;;;;;;;21.51;65.23;99372.28;4363806;32;35978;-79
2022/06/20 05:45:01;;;;;;;9.52;4.20;;;;;;;21.78;63.19;99367.25;4357361;32;35054;-79
2022/06/20 05:47:53;;;;;;;11.82;3.95;;;;;;;21.99;61.65;99363.69;4363430;32;35270;-79
2022/06/20 05:50:44;;;;;;;14.73;4.95;;;;;;;22.13;60.18;99365.72;4356037;32;34763;-79
2022/06/20 05:53:38;;;;;;;6.90;3.97;;;;;;;22.47;59.51;99359.03;4355451;32;34543;-79
2022/06/20 05:56:34;;;;;;;8.35;3.80;;;;;;;22.72;58.74;99359.03;4357934;32;34876;-79
2022/06/20 05:59:27;;;;;;;7.97;4.00;;;;;;;22.44;56.75;99369.00;4359841;32;35733;-79
2022/06/20 06:02:22;;;;;;;8.13;3.28;;;;;;;22.73;56.72;99372.59;4356320;32;34038;-79
2022/06/20 06:05:26;;;;;;;7.97;3.42;;;;;;;22.94;55.38;99376.56;4357217;32;34420;-79
2022/06/20 06:08:24;;;;;;;6.55;3.53;;;;;;;22.88;54.13;99378.94;4357119;32;35571;-79
2022/06/20 06:11:35;;;;;;;8.23;4.22;;;;;;;23.43;55.50;99372.91;4369931;32;35070;-79
2022/06/20 06:14:41;;;;;;;7.37;3.83;;;;;;;23.87;53.04;99370.75;4367366;32;33474;-80
2022/06/20 06:17:50;;;;;;;8.93;3.83;;;;;;;23.89;52.54;99362.75;4356780;32;34716;-79
2022/06/20 06:20:46;;;;;;;7.12;3.33;;;;;;;24.15;52.40;99359.38;4370515;32;35082;-80
2022/06/20 06:23:32;;;;;;;4.93;3.62;;;;;;;24.64;50.17;99360.25;4356691;32;33346;-80
2022/06/20 06:26:19;;;;;;;5.80;3.08;;;;;;;24.92;50.52;99361.19;4371395;32;34378;-80
2022/06/20 06:29:13;;;;;;;6.15;3.70;;;;;;;24.56;48.71;99355.94;4361141;32;35661;-79
2022/06/20 06:32:04;;;;;;;5.87;3.62;;;;;;;24.83;48.11;99352.47;4367606;32;34651;-79
2022/06/20 06:35:04;;;;;;;8.77;3.80;;;;;;;25.22;47.38;99356.94;4367325;32;35113;-79
2022/06/20 06:38:00;;;;;;;9.77;3.95;;;;;;;25.42;47.66;99349.50;4348855;32;35098;-80
2022/06/20 06:40:49;;;;;;;6.80;3.80;;;;;;;25.32;47.88;99350.41;4365506;32;34616;-79
2022/06/20 06:43:41;;;;;;;6.20;3.90;;;;;;;25.74;46.19;99356.72;4364773;32;35061;-79
2022/06/20 06:46:36;;;;;;;6.35;4.18;;;;;;;25.89;46.92;99352.50;4367593;32;35207;-79
2022/06/20 06:49:28;;;;;;;9.95;4.30;;;;;;;25.87;46.97;99352.16;4360813;32;35044;-80
2022/06/20 06:52:37;;;;;;;8.98;3.90;;;;;;;25.58;47.47;99352.47;4370097;32;35531;-80
2022/06/20 06:55:30;;;;;;;6.78;4.00;;;;;;;26.22;48.58;99361.28;4360885;32;34814;-80
2022/06/20 06:58:23;;;;;;;7.82;4.00;;;;;;;26.10;49.02;99345.00;4366040;32;34829;-80
2022/06/20 07:01:13;;;;;;;5.70;4.30;;;;;;;26.62;46.27;99350.25;4359324;32;33856;-80
2022/06/20 07:04:03;;;;;;;8.23;4.45;;;;;;;26.60;45.37;99341.44;4361138;32;34366;-80
2022/06/20 07:06:54;;;;;;;7.78;4.40;;;;;;;26.80;44.28;99344.31;4361622;32;34800;-80
2022/06/20 07:09:51;;;;;;;7.18;4.25;;;;;;;26.48;44.06;99334.38;4361588;32;35667;-80
2022/06/20 07:12:45;;;;;;;7.05;4.18;;;;;;;26.57;45.26;99329.03;4366643;32;34993;-80
2022/06/20 07:15:32;;;;;;;8.00;4.55;;;;;;;26.69;45.78;99328.41;4361262;32;34767;-80
2022/06/20 07:18:42;;;;;;;10.95;5.00;;;;;;;27.25;45.50;99324.22;4363532;32;35859;-80
2022/06/20 07:21:31;;;;;;;8.20;4.40;;;;;;;27.28;44.00;99318.53;4359335;32;35226;-80
2022/06/20 07:24:26;;;;;;;7.62;4.75;;;;;;;27.36;44.23;99317.16;4360834;32;34060;-80
2022/06/20 07:27:39;;;;;;;8.80;4.53;;;;;;;27.39;45.32;99318.31;4357051;32;34640;-80
2022/06/20 07:30:30;;;;;;;6.82;4.75;;;;;;;27.51;45.57;99319.69;4358973;32;34479;-80
2022/06/20 07:33:17;;;;;;;;;;;;;;;27.42;45.31;99319.47;4361206;32;35509;-80
2022/06/20 07:36:07;;;;;;;7.65;4.65;;;;;;;27.26;45.66;99317.38;4359166;32;33778;-80
2022/06/20 07:39:05;;;;;;;8.02;4.72;;;;;;;27.42;43.64;99313.84;4354504;32;35223;-80
2022/06/20 07:41:58;;;;;;;6.00;4.60;;;;;;;27.61;44.26;99301.78;4346405;32;34944;-80
2022/06/20 07:45:23;;;;;;;8.20;5.10;;;;;;;27.48;43.95;99298.81;4339976;32;34152;-81
2022/06/20 07:48:12;;;;;;;8.90;4.85;;;;;;;27.68;43.74;99298.81;4332713;32;33894;-80
2022/06/20 07:51:06;;;;;;;11.12;5.65;;;;;;;28.02;42.61;99286.41;4344249;32;34384;-80
2022/06/20 07:54:00;;;;;;;11.10;5.12;;;;;;;27.86;44.79;99297.63;4357433;32;34622;-80
2022/06/20 07:56:56;;;;;;;10.05;5.53;;;;;;;27.80;44.42;99298.16;4345394;32;35422;-80
2022/06/20 07:59:50;;;;;;;10.32;5.50;;;;;;;27.61;43.88;99300.97;4345274;32;34014;-80
2022/06/20 08:02:36;;;;;;;8.77;5.30;;;;;;;27.96;46.14;99305.06;4348435;32;35275;-79
2022/06/20 08:05:44;;;;;;;12.10;5.90;;;;;;;28.06;44.19;99291.94;4357317;32;35171;-80
2022/06/20 08:08:47;;;;;;;8.68;5.50;;;;;;;27.82;43.83;99291.31;4342260;32;34937;-80
2022/06/20 08:11:58;;;;;;;10.55;5.95;;;;;;;28.14;43.10;99285.69;4345129;32;33915;-80
2022/06/20 08:14:49;;;;;;;8.02;5.62;;;;;;;28.13;43.97;99286.16;4348122;32;35191;-81
2022/06/20 08:17:36;;;;;;;9.38;5.97;;;;;;;28.28;44.69;99278.16;4344933;32;35619;-80
2022/06/20 08:20:23;;;;;;;8.15;5.57;;;;;;;28.61;42.27;99278.94;4349732;32;34632;-80
2022/06/20 08:23:18;;;;;;;9.38;5.87;;;;;;;28.77;41.94;99278.13;4345492;32;33658;-80
2022/06/20 08:26:08;;;;;;;10.73;5.30;;;;;;;28.88;41.74;99275.78;4351198;32;35188;-81
2022/06/20 08:28:59;;;;;;;;;;;;;;;28.98;41.00;99279.56;4331939;32;34786;-80
2022/06/20 08:31:51;;;;;;;10.77;5.65;;;;;;;28.92;40.79;99270.88;4342115;32;34944;-81
2022/06/20 08:35:07;;;;;;;10.20;5.72;;;;;;;29.11;40.63;99261.47;4347239;32;35099;-80
2022/06/20 08:38:00;;;;;;;8.32;5.97;;;;;;;29.01;41.70;99273.03;4345013;32;34520;-81
2022/06/20 08:41:05;;;;;;;9.43;5.87;;;;;;;29.45;39.54;99262.91;4360587;32;34829;-80
2022/06/20 08:44:13;;;;;;;9.30;5.60;;;;;;;29.18;40.96;99273.81;4372171;32;34650;-81
2022/06/20 08:47:24;;;;;;;11.65;5.50;;;;;;;29.22;41.85;99261.16;4368352;32;34242;-81
2022/06/20 08:50:17;;;;;;;11.02;5.93;;;;;;;29.42;39.51;99265.84;4360615;32;35470;-81
2022/06/20 08:54:03;;;;;;;10.13;5.75;;;;;;;28.94;42.88;99271.19;4370406;32;36012;-80
2022/06/20 08:57:01;;;;;;;6.95;5.53;;;;;;;29.85;42.23;99265.34;4358868;32;34740;-80
2022/06/20 09:00:09;;;;;;;8.45;5.60;;;;;;;30.24;38.40;99254.84;4364512;32;35274;-80
2022/06/20 09:03:32;;;;;;;9.90;6.07;;;;;;;30.16;39.20;99254.25;4357522;32;35099;-82
2022/06/20 09:06:28;;;;;;;8.73;5.60;;;;;;;30.36;37.78;99248.38;4369328;32;34024;-81
2022/06/20 09:09:35;;;;;;;8.05;5.47;;;;;;;30.44;38.05;99252.53;4370053;32;34573;-80
2022/06/20 09:12:52;;;;;;;7.12;5.45;;;;;;;30.70;36.39;99249.62;4371273;32;34791;-81
2022/06/20 09:15:49;;;;;;;9.80;6.15;;;;;;;31.04;36.46;99246.00;4361635;32;34215;-80
2022/06/20 09:18:41;;;;;;;6.55;5.40;;;;;;;30.96;37.68;99235.41;4359144;32;34929;-80
2022/06/20 09:22:05;;;;;;;9.13;5.12;;;;;;;31.34;37.25;99230.31;4364039;32;34439;-81
2022/06/20 09:25:03;;;;;;;8.07;5.10;;;;;;;31.11;36.98;99227.97;4362059;32;35078;-80
2022/06/20 09:28:20;;;;;;;6.80;5.12;;;;;;;31.46;35.28;99213.75;4360604;32;34614;-80
2022/06/20 09:31:11;;;;;;;8.48;5.65;;;;;;;31.01;37.17;99212.19;4363936;32;35919;-81
2022/06/20 09:34:16;;;;;;;8.88;5.50;;;;;;;31.68;36.32;99213.66;4359797;32;35118;-81
2022/06/20 09:37:24;;;;;;;7.82;5.25;;;;;;;31.17;35.59;99191.38;4371265;32;35051;-81
2022/06/20 09:41:01;;;;;;;9.40;5.15;;;;;;;31.63;35.64;99188.81;4356849;32;34691;-81
2022/06/20 09:44:22;;;;;;;6.37;5.60;;;;;;;31.79;33.68;99189.34;4367474;32;34795;-81
2022/06/20 09:47:48;;;;;;;8.48;5.18;;;;;;;31.65;35.36;99192.75;4368403;32;35335;-81
2022/06/20 09:50:50;;;;;;;7.60;4.95;;;;;;;31.33;34.39;99189.09;4367308;32;33683;-81
2022/06/20 09:53:55;;;;;;;6.30;5.07;;;;;;;31.10;33.58;99186.78;4364149;32;34068;-81
2022/06/20 09:56:54;;;;;;;8.52;5.18;;;;;;;31.84;33.21;99187.13;4357408;32;35679;-82
2022/06/20 10:00:02;;;;;;;7.87;5.25;;;;;;;31.61;33.96;99185.66;4356407;32;34338;-82
2022/06/20 10:03:08;;;;;;;7.68;5.62;;;;;;;31.51;33.24;99179.16;4362541;32;36218;-80
2022/06/20 10:06:06;;;;;;;6.25;5.37;;;;;;;31.70;32.85;99177.16;4357352;32;34584;-81
2022/06/20 10:09:02;;;;;;;7.57;5.15;;;;;;;32.42;35.37;99163.66;4346105;32;35047;-82
2022/06/20 10:12:00;;;;;;;8.50;5.15;;;;;;;32.69;34.31;99163.66;4358349;32;34145;-82
2022/06/20 10:14:54;;;;;;;6.00;5.22;;;;;;;32.39;33.88;99159.72;4358586;32;34128;-81
2022/06/20 10:18:05;;;;;;;7.65;5.35;;;;;;;32.61;33.70;99162.41;4357804;32;35246;-82
2022/06/20 10:21:06;;;;;;;8.10;5.30;;;;;;;32.67;32.98;99148.37;4367320;32;35937;-82
2022/06/20 10:23:55;;;;;;;9.20;5.50;;;;;;;33.20;33.70;99167.84;4358980;32;34817;-81
2022/06/20 10:27:12;;;;;;;8.45;5.62;;;;;;;33.33;33.08;99156.31;4370168;32;34103;-81
2022/06/20 10:30:05;;;;;;;10.77;5.40;;;;;;;31.78;31.36;99159.41;4358520;32;35870;-81
2022/06/20 10:33:06;;;;;;;6.55;4.95;;;;;;;31.56;31.48;99153.06;4361773;32;34714;-82
2022/06/20 10:36:02;;;;;;;7.40;5.10;;;;;;;32.45;31.88;99154.19;4359985;32;35241;-82
2022/06/20 10:39:30;;;;;;;5.75;4.65;;;;;;;31.99;30.87;99156.97;4363843;32;34095;-84
2022/06/20 10:42:32;;;;;;;8.48;4.80;;;;;;;32.54;32.11;99148.56;4313564;32;34630;-81
2022/06/20 10:45:44;;;;;;;6.72;4.80;;;;;;;32.29;29.79;99148.84;4348806;32;35584;-82
2022/06/20 10:49:02;;;;;;;6.50;4.35;;;;;;;31.97;29.48;99146.13;4360209;32;34678;-81
2022/06/20 10:52:17;;;;;;;5.53;4.65;;;;;;;32.24;29.45;99145.34;4368656;32;34158;-81
2022/06/20 10:55:19;;;;;;;8.27;4.50;;;;;;;32.53;29.60;99146.97;4368241;32;35264;-82
2022/06/20 10:58:56;;;;;;;6.47;4.25;;;;;;;32.99;28.31;99138.44;4358504;32;33836;-82
2022/06/20 11:01:50;;;;;;;5.95;4.45;;;;;;;33.67;28.75;99134.38;4359496;32;33483;-82
2022/06/20 11:04:51;;;;;;;6.30;4.00;;;;;;;33.43;28.54;99142.84;4357306;32;34287;-83
2022/06/20 11:07:41;;;;;;;6.15;4.35;;;;;;;32.80;28.07;99129.12;4366235;32;35680;-83
2022/06/20 11:10:50;;;;;;;6.47;4.30;;;;;;;33.22;27.24;99125.59;4360594;32;34611;-83
2022/06/20 11:13:55;;;;;;;4.82;3.97;;;;;;;32.65;26.34;99126.16;4358838;32;34321;-82
2022/06/20 11:17:21;;;;;;;5.55;4.53;;;;;;;33.17;27.08;99126.22;4370033;32;33820;-83
2022/06/20 11:20:34;;;;;;;5.85;4.03;;;;;;;32.99;27.38;99115.72;4361500;32;33382;-82
2022/06/20 11:23:33;;;;;;;5.25;3.90;;;;;;;32.57;27.94;99107.91;4361118;32;35589;-83
2022/06/20 11:26:28;;;;;;;5.37;4.20;;;;;;;33.56;27.43;99115.84;4357821;32;35266;-83
2022/06/20 11:29:33;;;;;;;6.50;4.05;;;;;;;32.30;27.52;99105.06;4370996;32;34663;-83
2022/06/20 11:32:55;;;;;;;5.93;3.92;;;;;;;32.29;26.36;99118.44;4364643;32;35332;-81
2022/06/20 11:35:52;;;;;;;6.50;4.32;;;;;;;32.72;27.21;99121.44;4337161;32;35087;-83
2022/06/20 11:38:45;;;;;;;7.68;4.12;;;;;;;33.05;25.57;99110.97;4371799;32;35432;-83
2022/06/20 11:41:37;;;;;;;5.65;3.80;;;;;;;33.41;26.37;99103.56;4365717;32;33998;-84
2022/06/20 11:44:46;;;;;;;4.80;3.87;;;;;;;33.03;25.87;99116.34;4360682;32;34481;-82
2022/06/20 11:47:45;;;;;;;6.75;3.97;;;;;;;33.73;26.29;99115.44;4362475;32;35051;-82
2022/06/20 11:50:32;;;;;;;4.90;3.67;;;;;;;34.25;25.33;99113.19;4365568;32;35067;-81
2022/06/20 11:53:43;;;;;;;5.22;3.87;;;;;;;34.69;23.59;99110.44;4370353;32;34204;-83
2022/06/20 11:56:33;;;;;;;6.18;3.80;;;;;;;34.69;25.38;99110.44;4358095;32;33297;-83
2022/06/20 11:59:56;;;;;;;5.10;4.00;;;;;;;35.37;22.87;99105.88;4358017;32;33989;-82
2022/06/20 12:02:57;;;;;;;5.12;3.70;;;;;;;33.84;25.87;99109.19;4372139;32;34425;-83
2022/06/20 12:06:19;;;;;;;8.32;3.83;;;;;;;32.98;25.07;99097.09;4372813;32;34965;-82
2022/06/20 12:09:24;;;;;;;6.45;3.97;;;;;;;34.65;24.76;99109.06;4367622;32;35045;-82
2022/06/20 12:12:17;;;;;;;8.13;4.55;;;;;;;34.59;24.55;99096.81;4369698;32;34907;-82
2022/06/20 12:15:26;;;;;;;6.15;3.87;;;;;;;34.44;24.94;99103.22;4357316;32;34610;-82
2022/06/20 12:18:33;;;;;;;6.18;3.58;;;;;;;35.54;24.82;99097.59;4370384;32;35121;-82
2022/06/20 12:24:25;;;;;;;6.50;3.53;;;;;;;34.28;24.80;99086.63;4359983;32;34047;-83
2022/06/20 12:27:14;;;;;;;7.78;4.07;;;;;;;34.11;23.42;99082.66;4360982;32;34230;-82
2022/06/20 12:30:00;;;;;;;7.03;3.65;;;;;;;33.30;23.80;99072.88;4372517;32;34175;-82
2022/06/20 12:32:54;;;;;;;6.22;3.90;;;;;;;33.53;25.52;99074.19;4359952;32;35483;-83
2022/06/20 12:35:45;;;;;;;5.45;3.65;;;;;;;34.86;23.25;99076.56;4357398;32;36027;-82
2022/06/20 12:38:38;;;;;;;6.43;3.62;;;;;;;34.28;22.82;99061.03;4359468;32;35051;-82
2022/06/20 12:41:27;;;;;;;5.80;3.70;;;;;;;34.80;24.48;99064.31;4357083;32;33712;-82
2022/06/20 12:44:39;;;;;;;5.05;3.62;;;;;;;35.01;23.39;99064.37;4356534;32;35027;-82
2022/06/20 12:47:45;;;;;;;5.65;3.67;;;;;;;35.69;23.54;99058.47;4372069;32;34796;-82
2022/06/20 12:50:55;;;;;;;6.50;3.58;;;;;;;34.37;23.95;99060.16;4372231;32;35576;-83
2022/06/20 12:53:50;;;;;;;;;;;;;;;34.93;21.27;99059.12;4372393;32;34879;-82
2022/06/20 12:57:18;;;;;;;6.60;3.75;;;;;;;35.69;23.58;99046.28;4372293;32;34940;-84
2022/06/20 13:00:14;;;;;;;6.05;3.70;;;;;;;34.46;23.57;99058.00;4371674;32;34766;-83
2022/06/20 13:03:15;;;;;;;4.43;3.47;;;;;;;35.70;22.60;99060.03;4357461;32;33835;-83
2022/06/20 13:06:55;;;;;;;8.50;3.50;;;;;;;35.14;22.41;99053.50;4371938;32;34192;-84
2022/06/20 13:09:44;;;;;;;4.25;3.40;;;;;;;35.28;21.63;99058.38;4359007;32;35583;-82
2022/06/20 13:12:55;;;;;;;5.60;3.40;;;;;;;36.08;23.27;99048.87;4369875;32;34425;-83
2022/06/20 13:16:29;;;;;;;3.95;3.28;;;;;;;35.90;22.12;99047.06;4371569;32;34192;-82
2022/06/20 13:19:38;;;;;;;7.15;3.78;;;;;;;33.58;22.82;99042.31;4352462;32;35106;-83
2022/06/20 13:23:11;;;;;;;6.60;4.30;;;;;;;34.56;23.69;99052.28;4356658;32;34642;-83
2022/06/20 13:26:13;;;;;;;6.37;3.90;;;;;;;33.74;23.86;99048.81;4360196;32;35057;-83
2022/06/20 13:29:05;;;;;;;7.90;3.90;;;;;;;34.74;22.53;99040.69;4371927;32;34744;-83
2022/06/20 13:31:57;;;;;;;7.90;3.85;;;;;;;35.13;22.91;99038.50;4371964;32;34167;-82
2022/06/20 13:34:49;;;;;;;5.93;3.10;;;;;;;35.49;21.51;99032.78;4354625;32;170499;-82
2022/06/20 13:38:11;;;;;;;5.50;3.40;;;;;;;35.76;21.45;99029.53;4363639;32;33815;-84
2022/06/20 13:41:17;;;;;;;4.47;3.27;;;;;;;35.78;20.69;99026.22;4342388;32;34637;-83
2022/06/20 13:44:46;;;;;;;6.97;3.47;;;;;;;35.23;20.98;99042.00;4360147;32;32889;-81
2022/06/20 13:47:36;;;;;;;7.68;3.65;;;;;;;35.44;20.55;99034.28;4356820;32;35608;-84
2022/06/20 13:50:47;;;;;;;5.05;3.58;;;;;;;35.11;22.41;99032.50;4359415;32;34497;-82
2022/06/20 13:54:14;;;;;;;5.30;3.53;;;;;;;35.63;23.63;99017.72;4371844;32;34732;-82
2022/06/20 13:57:06;;;;;;;8.80;3.78;;;;;;;36.60;22.16;99008.94;4359450;32;35054;-82
2022/06/20 13:59:56;;;;;;;8.10;3.62;;;;;;;35.77;20.64;99008.31;4359460;32;35633;-83
2022/06/20 14:02:46;;;;;;;8.48;3.12;;;;;;;34.78;21.78;99014.88;4358064;32;35123;-83
2022/06/20 14:05:34;;;;;;;6.80;3.33;;;;;;;34.65;23.20;99012.34;4369468;32;34876;-83
2022/06/20 14:08:26;;;;;;;9.98;3.55;;;;;;;35.31;22.88;99006.12;4357506;32;33866;-81
2022/06/20 14:11:25;;;;;;;6.68;3.25;;;;;;;34.47;21.96;99022.62;4356860;32;35511;-83
2022/06/20 14:14:21;;;;;;;8.40;4.07;;;;;;;35.85;21.64;99002.19;4358196;32;34922;-83
2022/06/20 14:17:19;;;;;;;12.63;3.70;;;;;;;35.46;22.73;99000.38;4360017;32;34556;-81
2022/06/20 14:20:20;;;;;;;9.25;3.22;;;;;;;35.54;21.65;98995.81;4358550;32;34637;-84
2022/06/20 14:23:16;;;;;;;8.93;3.80;;;;;;;36.37;22.29;99003.00;4370512;32;34524;-83
2022/06/20 14:26:05;;;;;;;6.62;3.72;;;;;;;34.46;22.76;99006.03;4359661;32;35000;-82
2022/06/20 14:28:52;;;;;;;9.75;3.42;;;;;;;34.17;23.90;99001.13;4359057;32;34722;-83
2022/06/20 14:31:56;;;;;;;7.93;3.67;;;;;;;34.83;24.22;99003.56;4359083;32;34191;-81
2022/06/20 14:38:11;;;;;;;6.47;4.10;;;;;;;33.91;25.35;98998.03;4350370;32;34911;-83
2022/06/20 14:41:39;;;;;;;7.03;3.67;;;;;;;34.00;24.63;99004.41;4359457;32;35280;-83
2022/06/20 14:44:23;;;;;;;8.73;3.83;;;;;;;34.16;24.65;98993.88;4370474;32;33696;-82